Terminal Aerodrome Forecast
Issued by NWS Cleveland, OH

Current Version | Previous Version | Text Only | Print | Product List | Glossary On
Versions: 1 2 3 4 5 6 7 8 9 10 11 12 13 14 15 16 17 18 19 20 21 22 23 24 25 26 27 28 29
617
FTUS41 KCLE 242158 AAB
TAFCLE
TAF AMD
KCLE 242158Z 2422/2524 29010KT P6SM OVC005
     FM250200 22005KT P6SM OVC020
     FM251000 18008KT P6SM BKN020
     FM251500 18010G20KT P6SM SCT020 BKN100=

USA.gov is the U.S. government's official web portal to all federal, state and local government web resources and services.